createdAt,value
2023-10-06T00:01:07.636Z,55.14
2023-10-06T00:03:40.596Z,55.17
2023-10-06T00:06:08.209Z,55.05
2023-10-06T00:08:35.419Z,55.49
2023-10-06T00:11:04.151Z,55.60
2023-10-06T00:13:33.794Z,55.32
2023-10-06T00:16:06.587Z,55.24
2023-10-06T00:18:36.823Z,56.52
2023-10-06T00:21:09.686Z,55.41
2023-10-06T00:23:37.886Z,55.31
2023-10-06T00:26:04.841Z,55.77
2023-10-06T00:28:31.838Z,56.63
2023-10-06T00:30:58.606Z,56.30
2023-10-06T00:33:25.776Z,56.87
2023-10-06T00:35:52.695Z,57.29
2023-10-06T00:38:19.796Z,56.23
2023-10-06T00:43:56.906Z,54.72
2023-10-06T00:46:23.658Z,54.78
2023-10-06T00:48:50.625Z,54.91
2023-10-06T00:51:19.262Z,55.08
2023-10-06T00:53:52.014Z,54.79
2023-10-06T00:56:19.709Z,54.99
2023-10-06T00:58:47.037Z,55.19
2023-10-06T01:01:17.181Z,54.64
2023-10-06T01:03:45.784Z,56.50
2023-10-06T01:06:13.952Z,57.63
2023-10-06T01:08:46.806Z,58.11
2023-10-06T01:11:19.533Z,56.86
2023-10-06T01:13:48.759Z,55.75
2023-10-06T01:16:21.743Z,55.09
2023-10-06T01:18:48.938Z,54.48
2023-10-06T01:27:00.395Z,55.47
2023-10-06T01:29:34.541Z,56.92
2023-10-06T01:32:07.471Z,56.39
2023-10-06T01:34:35.988Z,57.50
2023-10-06T01:39:59.120Z,56.32
2023-10-06T01:42:31.700Z,57.44
2023-10-06T01:45:03.431Z,57.05
2023-10-06T01:47:36.171Z,56.65
2023-10-06T01:50:06.661Z,55.96
2023-10-06T01:52:44.409Z,57.27
2023-10-06T01:55:16.956Z,57.28
2023-10-06T02:00:34.439Z,57.00
2023-10-06T02:03:07.006Z,56.53
2023-10-06T02:05:35.473Z,56.07
2023-10-06T02:08:11.474Z,55.58
2023-10-06T02:10:39.147Z,56.05
2023-10-06T02:16:01.114Z,54.07
2023-10-06T02:18:31.676Z,55.26
2023-10-06T02:21:04.449Z,54.94
2023-10-06T02:23:37.323Z,56.15
2023-10-06T02:26:04.599Z,55.76
2023-10-06T02:28:32.840Z,55.90
2023-10-06T02:33:57.799Z,56.46
2023-10-06T02:36:24.995Z,54.68
2023-10-06T02:41:50.095Z,55.82
2023-10-06T02:44:18.090Z,55.12
2023-10-06T02:46:46.103Z,54.19
2023-10-06T02:49:14.849Z,54.56
2023-10-06T02:51:42.029Z,55.37
2023-10-06T02:57:00.243Z,55.34
2023-10-06T02:59:30.092Z,55.96
2023-10-06T03:01:59.242Z,57.37
2023-10-06T03:04:26.523Z,55.57
2023-10-06T03:06:53.533Z,55.19
2023-10-06T03:09:20.484Z,54.67
2023-10-06T03:11:53.174Z,56.40
2023-10-06T03:14:26.008Z,56.71
2023-10-06T03:16:53.763Z,56.51
2023-10-06T03:19:21.467Z,56.22
2023-10-06T03:24:46.094Z,55.67
2023-10-06T03:27:13.285Z,54.92
2023-10-06T03:29:46.236Z,56.02
2023-10-06T03:32:19.271Z,55.63
2023-10-06T03:34:52.274Z,55.67
2023-10-06T03:40:13.470Z,55.94
2023-10-06T03:42:40.223Z,56.52
2023-10-06T03:45:09.142Z,57.26
2023-10-06T03:50:30.799Z,57.44
2023-10-06T03:53:01.365Z,57.65
2023-10-06T03:55:34.198Z,57.33
2023-10-06T03:58:07.306Z,56.98
2023-10-06T04:00:40.282Z,57.15
2023-10-06T04:03:12.848Z,57.45
2023-10-06T04:08:30.212Z,59.05
2023-10-06T04:10:57.421Z,58.99
2023-10-06T04:13:24.648Z,59.03
2023-10-06T04:15:51.971Z,58.29
2023-10-06T04:18:19.285Z,58.18
2023-10-06T04:20:52.019Z,58.53
2023-10-06T04:23:24.832Z,58.01
2023-10-06T04:25:58.112Z,57.99
2023-10-06T04:28:25.647Z,58.88
2023-10-06T04:36:34.978Z,59.08
2023-10-06T04:39:05.868Z,59.95
2023-10-06T04:41:38.721Z,58.98
2023-10-06T04:47:20.923Z,59.07
2023-10-06T04:49:57.040Z,58.80
2023-10-06T04:52:42.586Z,58.93
2023-10-06T05:01:40.756Z,58.09
2023-10-06T05:07:06.573Z,58.88
2023-10-06T05:12:26.589Z,57.11
2023-10-06T05:14:53.811Z,58.27
2023-10-06T06:05:24.165Z,55.58
2023-10-06T06:07:51.397Z,56.01
2023-10-06T06:10:19.293Z,57.22
2023-10-06T06:12:48.484Z,57.86
2023-10-06T06:15:17.660Z,58.39
2023-10-06T06:17:44.733Z,58.14
2023-10-06T06:20:18.332Z,57.98
2023-10-06T06:22:45.707Z,59.01
2023-10-06T06:25:12.572Z,57.69
2023-10-06T06:27:39.868Z,57.43
2023-10-06T06:30:10.081Z,57.14
2023-10-06T06:32:37.276Z,56.89
2023-10-06T06:35:04.322Z,56.23
2023-10-06T06:37:31.385Z,56.06
2023-10-06T06:39:58.638Z,55.05
2023-10-06T06:45:43.209Z,54.27
2023-10-06T06:48:12.824Z,53.84
2023-10-06T06:50:39.773Z,53.30
2023-10-06T06:53:06.577Z,54.14
2023-10-06T06:55:34.381Z,54.33
2023-10-06T06:58:01.325Z,53.85
2023-10-06T07:00:28.382Z,53.58
2023-10-06T07:02:58.466Z,52.67
2023-10-06T07:05:32.112Z,52.38
2023-10-06T07:08:07.448Z,50.81
2023-10-06T07:10:43.494Z,50.47
2023-10-06T07:13:12.458Z,50.80
2023-10-06T07:15:42.228Z,51.94
2023-10-06T07:18:11.051Z,53.16
2023-10-06T07:20:37.957Z,53.55
2023-10-06T07:23:07.148Z,52.54
2023-10-06T07:25:34.342Z,53.49
2023-10-06T07:28:02.177Z,54.29
2023-10-06T07:30:31.390Z,54.14
2023-10-06T07:32:58.482Z,52.35
2023-10-06T07:35:29.007Z,52.40
2023-10-06T07:37:55.831Z,51.66
2023-10-06T07:40:22.983Z,51.21
2023-10-06T07:42:50.263Z,50.28
2023-10-06T07:45:18.050Z,50.72
2023-10-06T07:47:45.320Z,51.02
2023-10-06T07:50:12.988Z,50.33
2023-10-06T07:52:40.128Z,49.73
2023-10-06T07:55:09.290Z,50.21
2023-10-06T07:57:36.333Z,50.33
2023-10-06T08:00:03.289Z,51.02
2023-10-06T08:05:47.164Z,51.78
2023-10-06T08:08:14.280Z,51.18
2023-10-06T08:10:41.128Z,52.17
2023-10-06T08:13:11.202Z,51.48
2023-10-06T08:18:43.217Z,52.44
2023-10-06T08:21:11.441Z,52.21
2023-10-06T08:23:39.711Z,52.24
2023-10-06T08:26:08.499Z,53.37
2023-10-06T08:28:35.707Z,52.53
2023-10-06T08:31:03.365Z,51.01
2023-10-06T08:33:33.008Z,51.61
2023-10-06T08:36:01.198Z,50.87
2023-10-06T08:38:28.986Z,49.68
2023-10-06T08:40:55.972Z,49.19
2023-10-06T08:43:23.676Z,51.73
2023-10-06T08:45:52.948Z,52.05
2023-10-06T08:48:21.253Z,51.00
2023-10-06T08:50:48.075Z,52.60
2023-10-06T08:53:16.154Z,51.04
2023-10-06T09:01:50.640Z,52.43
2023-10-06T09:04:20.846Z,56.59
2023-10-06T09:32:00.763Z,52.66
2023-10-06T09:32:21.107Z,51.94
2023-10-06T09:38:09.284Z,51.86
2023-10-06T09:40:34.470Z,50.95
2023-10-06T09:43:01.615Z,50.42
2023-10-06T09:45:29.253Z,51.37
2023-10-06T09:50:40.760Z,53.46
2023-10-06T09:53:10.200Z,53.05
2023-10-06T09:55:38.233Z,52.46
2023-10-06T09:58:05.338Z,52.07
2023-10-06T10:00:32.510Z,51.64
2023-10-06T10:06:15.137Z,50.82
2023-10-06T10:08:44.450Z,50.47
2023-10-06T10:11:11.588Z,50.78
2023-10-06T10:13:42.284Z,51.24
2023-10-06T10:16:22.877Z,49.55
2023-10-06T10:19:11.740Z,49.53
2023-10-06T10:21:39.182Z,49.04
2023-10-06T10:24:40.623Z,49.94
2023-10-06T10:26:56.941Z,49.62
2023-10-06T10:29:23.915Z,50.45
2023-10-06T10:32:00.802Z,49.33
2023-10-06T10:34:28.959Z,51.25
2023-10-06T10:36:56.863Z,49.52
2023-10-06T10:39:24.126Z,48.80
2023-10-06T10:41:51.637Z,49.32
2023-10-06T10:44:25.961Z,48.97
2023-10-06T10:47:12.853Z,48.25
2023-10-06T10:49:39.857Z,47.70
2023-10-06T10:52:07.526Z,48.13
2023-10-06T10:54:34.531Z,46.71
2023-10-06T10:57:01.368Z,47.41
2023-10-06T10:59:28.231Z,48.55
2023-10-06T11:01:56.091Z,48.56
2023-10-06T11:04:23.060Z,46.76
2023-10-06T11:06:49.950Z,46.64
2023-10-06T11:09:17.185Z,45.22
2023-10-06T11:11:44.835Z,45.01
2023-10-06T11:14:11.871Z,44.98
2023-10-06T11:16:39.358Z,45.16
2023-10-06T11:19:06.424Z,45.46
2023-10-06T11:21:34.285Z,46.58
2023-10-06T11:24:01.224Z,45.87
2023-10-06T11:26:28.222Z,45.66
2023-10-06T11:28:56.255Z,45.79
2023-10-06T11:31:23.997Z,43.98
2023-10-06T11:39:42.007Z,41.06
2023-10-06T11:45:18.258Z,40.38
2023-10-06T11:47:45.331Z,41.06
2023-10-06T11:50:13.221Z,40.77
2023-10-06T11:52:55.974Z,41.46
2023-10-06T11:58:34.312Z,39.88
2023-10-06T12:01:37.310Z,40.13
2023-10-06T12:06:53.961Z,39.17
2023-10-06T12:16:48.613Z,41.62
2023-10-06T12:18:47.650Z,40.86
2023-10-06T12:21:23.793Z,41.08
2023-10-06T12:30:17.709Z,41.46
2023-10-06T12:35:44.751Z,40.04
2023-10-06T12:50:34.218Z,40.61
2023-10-06T12:56:13.604Z,41.21
2023-10-06T12:59:03.178Z,40.50
2023-10-06T13:17:34.179Z,40.56
2023-10-06T13:33:34.717Z,41.19
2023-10-06T14:01:24.139Z,41.43
2023-10-06T14:03:51.275Z,40.99
2023-10-06T14:06:18.289Z,41.19
2023-10-06T14:08:46.722Z,41.89
2023-10-06T14:11:18.017Z,41.03
2023-10-06T14:13:45.098Z,40.85
2023-10-06T14:16:12.989Z,41.11
2023-10-06T14:31:49.491Z,41.87
2023-10-06T14:34:13.100Z,42.27
2023-10-06T14:36:39.894Z,42.98
2023-10-06T14:39:07.048Z,42.88
2023-10-06T14:41:33.798Z,42.77
2023-10-06T14:44:00.654Z,43.10
2023-10-06T14:46:27.650Z,42.33
2023-10-06T14:52:00.185Z,42.87
2023-10-06T14:54:27.262Z,43.23
2023-10-06T14:56:55.706Z,43.50
2023-10-06T14:59:22.940Z,42.78
2023-10-06T15:01:50.302Z,43.14
2023-10-06T15:04:17.319Z,43.51
2023-10-06T15:06:47.867Z,43.39
2023-10-06T15:09:14.561Z,42.79
2023-10-06T15:11:41.753Z,42.30
2023-10-06T15:14:14.028Z,42.51
2023-10-06T15:16:41.768Z,43.42
2023-10-06T15:19:08.703Z,43.23
2023-10-06T15:21:35.903Z,43.00
2023-10-06T15:24:05.991Z,43.78
2023-10-06T15:26:33.095Z,44.91
2023-10-06T15:29:02.198Z,44.56
2023-10-06T15:31:33.218Z,44.79
2023-10-06T15:34:00.281Z,44.08
2023-10-06T15:36:27.186Z,44.23
2023-10-06T15:38:53.936Z,43.99
2023-10-06T15:41:20.843Z,43.80
2023-10-06T15:43:48.464Z,43.20
2023-10-06T15:46:15.632Z,44.96
2023-10-06T15:48:44.903Z,44.73
2023-10-06T15:51:17.376Z,44.84
2023-10-06T15:53:44.548Z,45.86
2023-10-06T15:56:11.563Z,45.76
2023-10-06T15:58:38.441Z,46.53
2023-10-06T16:01:05.431Z,45.76
2023-10-06T16:03:32.463Z,44.91
2023-10-06T16:05:59.703Z,45.68
2023-10-06T16:08:26.733Z,44.57
2023-10-06T16:10:53.477Z,44.16
2023-10-06T16:13:20.337Z,43.95
2023-10-06T16:16:04.171Z,43.97
2023-10-06T16:18:36.323Z,43.76
2023-10-06T16:21:03.312Z,43.84
2023-10-06T16:23:32.529Z,44.02
2023-10-06T16:25:59.900Z,43.61
2023-10-06T16:28:27.424Z,44.07
2023-10-06T16:30:54.006Z,43.84
2023-10-06T16:33:21.123Z,44.35
2023-10-06T16:35:48.344Z,45.07
2023-10-06T16:38:18.502Z,44.96
2023-10-06T16:40:45.723Z,44.17
2023-10-06T16:43:12.393Z,44.12
2023-10-06T16:45:40.893Z,43.81
2023-10-06T16:51:18.698Z,42.63
2023-10-06T16:53:45.444Z,42.08
2023-10-06T16:56:13.147Z,41.91
2023-10-06T16:58:42.166Z,42.17
2023-10-06T17:01:08.932Z,42.30
2023-10-06T17:03:36.142Z,42.26
2023-10-06T17:06:02.926Z,42.40
2023-10-06T17:08:29.593Z,43.02
2023-10-06T17:10:56.399Z,42.58
2023-10-06T17:13:23.389Z,42.86
2023-10-06T17:15:50.279Z,42.93
2023-10-06T17:18:18.553Z,43.04
2023-10-06T17:20:45.401Z,43.40
2023-10-06T17:23:13.286Z,43.83
2023-10-06T17:25:40.035Z,44.16
2023-10-06T17:28:10.410Z,44.44
2023-10-06T17:33:30.814Z,44.04
2023-10-06T17:35:57.950Z,44.07
2023-10-06T17:38:25.004Z,45.99
2023-10-06T17:40:56.100Z,45.88
2023-10-06T17:43:25.864Z,46.23
2023-10-06T17:45:55.659Z,45.80
2023-10-06T17:48:25.718Z,45.97
2023-10-06T17:50:52.624Z,47.17
2023-10-06T18:05:51.667Z,48.33
2023-10-06T18:08:21.876Z,48.68
2023-10-06T18:10:48.674Z,48.46
2023-10-06T18:13:15.617Z,49.01
2023-10-06T18:15:42.449Z,49.06
2023-10-06T18:18:09.428Z,48.84
2023-10-06T18:20:36.981Z,48.80
2023-10-06T18:23:05.515Z,48.40
2023-10-06T18:25:32.464Z,48.89
2023-10-06T18:28:00.029Z,48.76
2023-10-06T18:30:26.702Z,49.18
2023-10-06T18:32:53.602Z,49.96
2023-10-06T18:35:20.370Z,50.69
2023-10-06T18:37:47.403Z,51.04
2023-10-06T18:40:14.154Z,51.65
2023-10-06T18:42:44.193Z,52.98
2023-10-06T18:45:11.122Z,55.57
2023-10-06T18:47:37.833Z,55.71
2023-10-06T18:50:04.785Z,55.13
2023-10-06T18:52:31.347Z,56.00
2023-10-06T18:54:57.858Z,58.74
2023-10-06T18:57:24.524Z,57.59
2023-10-06T18:59:51.402Z,56.90
2023-10-06T19:02:18.058Z,55.81
2023-10-06T19:04:45.939Z,55.42
2023-10-06T19:07:14.681Z,55.89
2023-10-06T19:09:41.241Z,55.44
2023-10-06T20:40:47.839Z,58.87
2023-10-06T20:43:21.726Z,58.83
2023-10-06T20:45:48.858Z,59.64
2023-10-06T20:48:16.319Z,59.63
2023-10-06T20:50:43.802Z,60.38
2023-10-06T20:53:12.002Z,59.04
2023-10-06T20:55:39.015Z,58.71
2023-10-06T20:58:08.832Z,58.66
2023-10-06T21:00:39.226Z,59.17
2023-10-06T21:03:09.066Z,59.14
2023-10-06T21:05:36.824Z,60.99
2023-10-06T21:08:21.785Z,61.70
2023-10-06T21:10:51.909Z,62.08
2023-10-06T21:13:18.967Z,61.53
2023-10-06T21:15:49.035Z,60.93
2023-10-06T21:18:16.757Z,61.15
2023-10-06T21:23:40.147Z,60.55
2023-10-06T21:26:10.168Z,60.25
2023-10-06T21:28:37.970Z,61.35
2023-10-06T21:31:05.732Z,60.06
2023-10-06T21:33:33.565Z,59.39
2023-10-06T21:36:04.200Z,58.85
2023-10-06T21:38:32.016Z,60.81
2023-10-06T21:40:59.893Z,60.48
2023-10-06T21:43:30.282Z,60.74
2023-10-06T21:46:05.514Z,59.67
2023-10-06T21:48:34.409Z,60.61
2023-10-06T21:51:01.189Z,60.92
2023-10-06T21:53:31.781Z,61.07
2023-10-06T21:56:02.842Z,60.50
2023-10-06T22:01:27.645Z,60.76
2023-10-06T22:03:57.308Z,61.26
2023-10-06T22:06:29.805Z,60.85
2023-10-06T22:08:57.708Z,61.82
2023-10-06T22:11:25.227Z,61.38
2023-10-06T22:13:52.381Z,61.98
2023-10-06T22:16:23.283Z,63.11
2023-10-06T22:18:50.275Z,62.22
2023-10-06T22:21:18.033Z,61.67
2023-10-06T22:23:47.229Z,62.15
2023-10-06T22:26:15.104Z,62.82
2023-10-06T22:28:43.241Z,62.52
2023-10-06T22:31:11.164Z,62.66
2023-10-06T22:33:37.917Z,63.09
2023-10-06T22:36:06.094Z,62.85
2023-10-06T22:38:32.714Z,62.80
2023-10-06T22:40:59.712Z,62.86
2023-10-06T22:49:41.035Z,62.32
2023-10-06T22:52:07.851Z,61.40
2023-10-06T22:54:36.436Z,61.34
2023-10-06T22:57:03.271Z,62.44
2023-10-06T22:59:31.057Z,61.61
2023-10-06T23:01:58.614Z,63.30
2023-10-06T23:04:26.185Z,63.33
2023-10-06T23:06:57.827Z,61.70
2023-10-06T23:09:24.597Z,62.14
2023-10-06T23:11:52.361Z,61.89
2023-10-06T23:14:23.860Z,60.94
2023-10-06T23:16:51.855Z,61.03
2023-10-06T23:19:19.563Z,60.80
2023-10-06T23:21:46.897Z,61.84
2023-10-06T23:24:14.633Z,61.99
2023-10-06T23:26:41.395Z,62.94
2023-10-06T23:29:08.311Z,63.30
2023-10-06T23:31:35.693Z,62.50
2023-10-06T23:34:03.759Z,61.65
2023-10-06T23:36:30.937Z,61.50
2023-10-06T23:39:00.892Z,60.42
2023-10-06T23:44:44.338Z,62.45
2023-10-06T23:47:11.158Z,62.29
2023-10-06T23:49:39.170Z,61.55
2023-10-06T23:52:08.168Z,61.96
2023-10-06T23:54:35.064Z,61.10
2023-10-06T23:57:03.465Z,60.81
2023-10-06T23:59:31.148Z,59.98
